IT Intrepid — 8PSH — position and weather

sailwx.info

Track history (hours):
 
Tides and Currents Weather Stations Pressure Air Temp Water Temp Dewpoint Dewpoint Depression Visibility Wind Speed Wind Dir Waves Ship Positions

IT Intrepid (Canada)

Canada's IT Telecom's cable laying ship. Ex Sir Eric Sharp, built at Swan Hunter.

Ship's website: http://www.ittelecom.com/IT%20Intrepid%20Data%20Sheet.pdf

Last reported at 2016-Sep-18 15:26 UTC. Time now 2016-Sep-26 19:07 UTC.
Position N 47°34' W 052°42'.
Warning: this ship's position is 8 days out of date.

Length 115 m; beam 18 m; draft 6.3 m.

Type: Dredging. MMSI: 314199000.

Date/timePositionNaut miles runAvg speedWind from/ knotsBaromVisibWave heightAir tempDewpointWater temp
2016-Sep-18 15:26N 47°34' W 052°42'0 0.0
2016-Sep-18 10:29N 47°34' W 052°42'0 0.0
2016-Sep-18 09:29N 47°34' W 052°42'0 0.0
2016-Sep-18 02:29N 47°34' W 052°42'0 0.0
2016-Sep-18 01:29N 47°34' W 052°42'0 0.0
2016-Sep-18 00:29N 47°34' W 052°42'0 0.0
2016-Sep-17 21:26N 47°34' W 052°42'0 0.0
2016-Sep-17 20:32N 47°34' W 052°42'0 0.0
2016-Sep-17 19:14N 47°34' W 052°42'0 0.0
2016-Sep-17 13:32N 47°34' W 052°42'0 0.0
2016-Sep-17 12:32N 47°34' W 052°42'0 0.0
2016-Sep-17 10:32N 47°34' W 052°42'0 0.0
2016-Sep-17 09:29N 47°34' W 052°42'0 0.0
2016-Sep-17 08:32N 47°34' W 052°42'0 0.0
2016-Sep-17 07:32N 47°34' W 052°42'0 0.0
2016-Sep-17 05:32N 47°34' W 052°42'0 0.0
2016-Sep-17 04:32N 47°34' W 052°42'0 0.0
2016-Sep-17 00:32N 47°34' W 052°42'0 0.0
2016-Sep-16 17:32N 47°34' W 052°42'0 0.0
2016-Sep-16 15:32N 47°34' W 052°42'0 0.0
2016-Sep-16 12:32N 47°34' W 052°42'0 0.0
2016-Sep-16 09:32N 47°34' W 052°42'0 0.0
2016-Sep-16 07:32N 47°34' W 052°42'0 0.0
2016-Sep-16 03:32N 47°34' W 052°42'0 0.0
2016-Sep-16 02:32N 47°34' W 052°42'0 0.0
2016-Sep-16 00:32N 47°34' W 052°42'0 0.0
2016-Sep-15 22:33N 47°34' W 052°42'6 6.4
2016-Sep-15 21:33N 47°33' W 052°33'2 0.0
2016-Sep-13 18:32N 47°33' W 052°35'  
2016-Sep-10 07:27N 47°38' W 052°37'1 0.7
2016-Sep-10 06:33N 47°38' W 052°36'1 0.8
2016-Sep-10 05:32N 47°37' W 052°35'1 0.8
2016-Sep-10 04:30N 47°37' W 052°34'1 0.8
2016-Sep-10 03:33N 47°36' W 052°33'1 0.8
2016-Sep-10 02:33N 47°36' W 052°32'1 0.8
2016-Sep-10 01:32N 47°36' W 052°31'1 0.8
2016-Sep-10 00:32N 47°35' W 052°30'1 0.8
2016-Sep-09 23:33N 47°35' W 052°29'1 0.8
2016-Sep-09 22:32N 47°34' W 052°28'1 0.8
2016-Sep-09 21:26N 47°34' W 052°27'1 0.8
2016-Sep-09 20:29N 47°33' W 052°26'1 0.8
2016-Sep-09 19:32N 47°33' W 052°25'2 0.8
2016-Sep-09 17:33N 47°32' W 052°23'1 0.8
2016-Sep-09 16:32N 47°32' W 052°22'1 0.8
2016-Sep-09 15:25N 47°31' W 052°21'  
Track history (hours):
 
Tides and Currents Weather Stations Pressure Air Temp Water Temp Dewpoint Dewpoint Depression Visibility Wind Speed Wind Dir Waves Ship Positions

IT Intrepid (Canada)

Canada's IT Telecom's cable laying ship. Ex Sir Eric Sharp, built at Swan Hunter.

Ship's website: http://www.ittelecom.com/IT%20Intrepid%20Data%20Sheet.pdf

Last reported at 2016-Sep-18 15:26 UTC. Time now 2016-Sep-26 19:07 UTC.
Position N 47°34' W 052°42'.
Warning: this ship's position is 8 days out of date.

Length 115 m; beam 18 m; draft 6.3 m.

Type: Dredging. MMSI: 314199000.

Date/timePositionNaut miles runAvg speedWind from/ knotsBaromVisibWave heightAir tempDewpointWater temp
2016-Sep-18 15:26N 47°34' W 052°42'0 0.0
2016-Sep-18 10:29N 47°34' W 052°42'0 0.0
2016-Sep-18 09:29N 47°34' W 052°42'0 0.0
2016-Sep-18 02:29N 47°34' W 052°42'0 0.0
2016-Sep-18 01:29N 47°34' W 052°42'0 0.0
2016-Sep-18 00:29N 47°34' W 052°42'0 0.0
2016-Sep-17 21:26N 47°34' W 052°42'0 0.0
2016-Sep-17 20:32N 47°34' W 052°42'0 0.0
2016-Sep-17 19:14N 47°34' W 052°42'0 0.0
2016-Sep-17 13:32N 47°34' W 052°42'0 0.0
2016-Sep-17 12:32N 47°34' W 052°42'0 0.0
2016-Sep-17 10:32N 47°34' W 052°42'0 0.0
2016-Sep-17 09:29N 47°34' W 052°42'0 0.0
2016-Sep-17 08:32N 47°34' W 052°42'0 0.0
2016-Sep-17 07:32N 47°34' W 052°42'0 0.0
2016-Sep-17 05:32N 47°34' W 052°42'0 0.0
2016-Sep-17 04:32N 47°34' W 052°42'0 0.0
2016-Sep-17 00:32N 47°34' W 052°42'0 0.0
2016-Sep-16 17:32N 47°34' W 052°42'0 0.0
2016-Sep-16 15:32N 47°34' W 052°42'0 0.0
2016-Sep-16 12:32N 47°34' W 052°42'0 0.0
2016-Sep-16 09:32N 47°34' W 052°42'0 0.0
2016-Sep-16 07:32N 47°34' W 052°42'0 0.0
2016-Sep-16 03:32N 47°34' W 052°42'0 0.0
2016-Sep-16 02:32N 47°34' W 052°42'0 0.0
2016-Sep-16 00:32N 47°34' W 052°42'0 0.0
2016-Sep-15 22:33N 47°34' W 052°42'6 6.4
2016-Sep-15 21:33N 47°33' W 052°33'2 0.0
2016-Sep-13 18:32N 47°33' W 052°35'  
2016-Sep-10 07:27N 47°38' W 052°37'1 0.7
2016-Sep-10 06:33N 47°38' W 052°36'1 0.8
2016-Sep-10 05:32N 47°37' W 052°35'1 0.8
2016-Sep-10 04:30N 47°37' W 052°34'1 0.8
2016-Sep-10 03:33N 47°36' W 052°33'1 0.8
2016-Sep-10 02:33N 47°36' W 052°32'1 0.8
2016-Sep-10 01:32N 47°36' W 052°31'1 0.8
2016-Sep-10 00:32N 47°35' W 052°30'1 0.8
2016-Sep-09 23:33N 47°35' W 052°29'1 0.8
2016-Sep-09 22:32N 47°34' W 052°28'1 0.8
2016-Sep-09 21:26N 47°34' W 052°27'1 0.8
2016-Sep-09 20:29N 47°33' W 052°26'1 0.8
2016-Sep-09 19:32N 47°33' W 052°25'2 0.8
2016-Sep-09 17:33N 47°32' W 052°23'1 0.8
2016-Sep-09 16:32N 47°32' W 052°22'1 0.8
2016-Sep-09 15:25N 47°31' W 052°21'  

Dump ship's entire track history